Latest Weather Observations for Mount Boyce

IDN60801

Issued at 7:32 am EST Friday 29 May 2015 (issued every 30 minutes, with the page automatically refreshed every 10 minutes)

About weather observations | Map of weather stations | Latest weather observations for NSW | Other Formats
Station Details ID: 063292 Name: MOUNT BOYCE AWS Lat: -33.62 Lon: 150.27 Height: 1080.0 m
Data from the previous 72 hours. | See also: Recent months at Mount Boyce
Date/Time
EST
Temp
°C
App
Temp
°C
Dew
Point
Rel
Hum
%
Delta-T
°C
Wind Press
QNH
hPa
Press
MSL
hPa
Rain
since 9 am
mm
Dir
 
Spd
km/h
Gust
km/h
Spd
kts
Gust
kts
29/07:30am 10.4 6.1 9.2 92 0.6 W 22 32 12 17 - - 0.0
29/07:00am 10.7 5.2 9.1 90 0.8 W 28 48 15 26 - - 0.0
29/06:57am 10.7 5.2 9.3 91 0.7 W 28 48 15 26 - - 0.0
29/06:30am 10.6 5.4 9.0 90 0.8 WSW 26 41 14 22 - - 0.0
29/06:03am 10.7 5.1 8.8 88 1.0 W 28 50 15 27 - - 0.0
29/06:00am 10.6 5.4 8.7 88 1.0 W 26 41 14 22 - - 0.0
29/05:30am 10.7 5.8 8.5 86 1.1 W 24 35 13 19 - - 0.0
29/05:00am 10.8 5.1 8.2 84 1.3 W 28 44 15 24 - - 0.0
29/04:44am 10.9 5.1 8.1 83 1.4 W 28 46 15 25 - - 0.0
29/04:30am 11.0 5.2 8.0 82 1.6 W 28 52 15 28 - - 0.0
29/04:01am 11.1 5.3 8.0 81 1.6 W 28 46 15 25 - - 0.0
29/04:00am 11.1 5.3 7.8 80 1.7 W 28 43 15 23 - - 0.0
29/03:35am 11.3 5.1 7.8 79 1.8 W 30 48 16 26 - - 0.0
29/03:30am 11.3 4.7 7.8 79 1.8 W 32 48 17 26 - - 0.0
29/03:12am 11.2 5.0 7.9 80 1.7 W 30 54 16 29 - - 0.0
29/03:00am 11.2 4.6 7.9 80 1.7 W 32 46 17 25 - - 0.0
29/02:30am 11.1 5.0 8.1 82 1.6 W 30 50 16 27 - - 0.0
29/02:00am 11.0 5.3 8.4 84 1.4 W 28 56 15 30 - - 0.0
29/01:39am 10.8 5.2 8.7 87 1.1 W 28 50 15 27 - - 0.0
29/01:30am 10.7 5.9 8.8 88 1.0 W 24 46 13 25 - - 0.0
29/01:26am 10.7 5.9 8.8 88 1.0 W 24 44 13 24 - - 0.0
29/01:00am 10.5 6.1 8.9 90 0.8 W 22 43 12 23 - - 0.0
29/12:43am 10.3 5.6 9.1 92 0.6 W 24 39 13 21 - - 0.0
29/12:32am 10.3 5.6 9.1 92 0.6 WNW 24 39 13 21 - - 0.0
29/12:30am 10.3 5.5 8.9 91 0.7 WNW 24 39 13 21 - - 0.0
29/12:00am 10.3 6.2 8.7 90 0.8 WNW 20 35 11 19 - - 0.0
 
Date/Time
EST
Temp
°C
App
Temp
°C
Dew
Point
Rel
Hum
%
Delta-T
°C
Wind Press
QNH
hPa
Press
MSL
hPa
Rain
since 9 am
mm
Dir
 
Spd
km/h
Gust
km/h
Spd
kts
Gust
kts
28/11:49pm 10.3 5.5 8.7 90 0.8 WNW 24 39 13 21 - - 0.0
28/11:30pm 10.1 6.0 8.5 90 0.8 WNW 20 35 11 19 - - 0.0
28/11:00pm 10.1 5.6 8.5 90 0.8 WNW 22 35 12 19 - - 0.0
28/10:54pm 10.1 6.0 8.5 90 0.8 WNW 20 35 11 19 - - 0.0
28/10:39pm 10.1 6.0 8.5 90 0.8 WNW 20 33 11 18 - - 0.0
28/10:30pm 10.1 6.2 8.5 90 0.8 WNW 19 32 10 17 - - 0.0
28/10:00pm 10.2 6.2 8.3 88 1.0 WNW 19 33 10 18 - - 0.0
28/09:30pm 10.2 5.3 8.3 88 1.0 WNW 24 41 13 22 - - 0.0
28/09:00pm 10.2 5.3 8.3 88 1.0 WNW 24 43 13 23 - - 0.0
28/08:30pm 9.8 6.2 8.2 90 0.8 W 17 24 9 13 - - 0.0
28/08:18pm 9.8 6.5 8.2 90 0.8 W 15 28 8 15 - - 0.0
28/08:00pm 9.9 6.6 8.2 89 0.9 W 15 24 8 13 - - 0.0
28/07:33pm 10.2 6.2 8.3 88 1.0 W 19 32 10 17 - - 0.0
28/07:30pm 10.3 6.3 8.4 88 1.0 WNW 19 32 10 17 - - 0.0
28/07:00pm 10.1 7.2 8.2 88 1.0 WNW 13 24 7 13 - - 0.0
28/06:30pm 10.1 6.5 8.2 88 1.0 WNW 17 30 9 16 - - 0.0
28/06:09pm 10.1 6.9 8.4 89 0.9 W 15 24 8 13 - - 0.0
28/06:00pm 10.0 6.8 8.4 90 0.8 W 15 24 8 13 - - 0.0
28/05:38pm 10.2 7.4 8.6 90 0.8 W 13 20 7 11 - - 0.0
28/05:30pm 10.2 7.4 8.6 90 0.8 W 13 20 7 11 - - 0.0
28/05:28pm 10.1 7.7 8.5 90 0.8 W 11 19 6 10 - - 0.0
28/05:00pm 10.4 7.3 8.7 89 0.9 W 15 22 8 12 - - 0.0
28/04:30pm 10.6 7.9 8.9 89 0.9 W 13 20 7 11 - - 0.0
28/04:00pm 10.7 8.0 8.8 88 1.0 W 13 24 7 13 - - 0.0
28/03:30pm 10.6 7.9 8.9 89 0.9 W 13 26 7 14 - - 0.0
28/03:00pm 10.6 7.1 8.9 89 0.9 W 17 26 9 14 - - 0.0
28/02:30pm 11.1 7.3 9.0 87 1.1 W 19 32 10 17 - - 0.0
28/02:00pm 11.5 6.7 8.9 84 1.4 W 24 39 13 21 - - 0.0
28/01:30pm 11.8 7.9 8.5 80 1.7 W 19 33 10 18 - - 0.0
28/01:00pm 12.3 9.6 9.0 80 1.8 W 13 20 7 11 - - 0.0
28/12:47pm 12.0 9.3 8.8 81 1.7 W 13 19 7 10 - - 0.0
28/12:43pm 12.0 9.3 8.8 81 1.7 W 13 20 7 11 - - 0.0
28/12:30pm 12.1 8.7 9.1 82 1.6 W 17 24 9 13 - - 0.0
28/12:17pm 11.9 8.8 8.9 82 1.6 W 15 22 8 12 - - 0.0
28/12:11pm 12.1 8.7 9.1 82 1.6 W 17 24 9 13 - - 0.0
28/12:00pm 12.1 8.6 8.6 79 1.8 WSW 17 26 9 14 - - 0.0
28/11:35am 11.9 9.2 8.9 82 1.6 WSW 13 20 7 11 - - 0.0
28/11:30am 11.7 8.9 8.6 81 1.6 WSW 13 20 7 11 - - 0.0
28/11:00am 11.7 8.4 8.0 78 1.9 W 15 24 8 13 - - 0.0
28/10:30am 10.9 7.5 7.6 80 1.7 W 15 20 8 11 - - 0.0
28/10:00am 10.6 6.7 6.9 78 1.9 W 17 22 9 12 - - 0.0
28/09:30am 10.3 6.4 7.0 80 1.7 W 17 24 9 13 - - 0.0
28/09:00am 9.5 5.8 6.4 81 1.5 W 15 19 8 10 - - 0.0
28/08:30am 9.0 5.7 6.4 84 1.3 W 13 19 7 10 - - 0.0
28/08:00am 8.1 4.7 5.9 86 1.1 W 13 17 7 9 - - 0.0
28/07:30am 8.0 4.2 6.0 87 1.0 W 15 19 8 10 - - 0.0
28/07:00am 7.7 4.5 5.2 84 1.2 W 11 17 6 9 - - 0.0
28/06:30am 7.9 4.3 5.0 82 1.4 W 13 17 7 9 - - 0.0
28/06:00am 7.8 4.5 4.6 80 1.5 W 11 17 6 9 - - 0.0
28/05:30am 7.8 4.8 4.2 78 1.7 WNW 9 15 5 8 - - 0.0
28/05:00am 7.5 4.2 4.3 80 1.5 WNW 11 13 6 7 - - 0.0
28/04:30am 7.5 4.6 4.5 81 1.4 WNW 9 15 5 8 - - 0.0
28/04:00am 8.0 5.1 4.8 80 1.5 WNW 9 11 5 6 - - 0.0
28/03:30am 8.1 5.2 4.5 78 1.7 WNW 9 13 5 7 - - 0.0
28/03:00am 8.5 5.7 5.3 80 1.5 WNW 9 13 5 7 - - 0.0
28/02:30am 7.9 5.1 5.0 82 1.4 WNW 9 11 5 6 - - 0.0
28/02:00am 8.1 5.7 5.4 83 1.3 NW 7 11 4 6 - - 0.0
28/01:30am 7.6 4.8 5.2 85 1.1 WNW 9 13 5 7 - - 0.0
28/01:00am 7.6 5.3 5.6 87 1.0 W 7 9 4 5 - - 0.0
28/12:30am 7.7 5.0 5.7 87 1.0 WNW 9 13 5 7 - - 0.0
28/12:00am 7.3 4.6 5.8 90 0.7 WNW 9 13 5 7 - - 0.0
 
Date/Time
EST
Temp
°C
App
Temp
°C
Dew
Point
Rel
Hum
%
Delta-T
°C
Wind Press
QNH
hPa
Press
MSL
hPa
Rain
since 9 am
mm
Dir
 
Spd
km/h
Gust
km/h
Spd
kts
Gust
kts
27/11:30pm 7.2 4.2 5.8 91 0.7 WNW 11 15 6 8 - - 0.0
27/11:00pm 6.9 4.6 5.7 92 0.6 NW 7 9 4 5 - - 0.0
27/10:30pm 6.9 4.8 5.7 92 0.6 WNW 6 9 3 5 - - 0.0
27/10:00pm 7.1 5.0 5.6 90 0.7 WNW 6 9 3 5 - - 0.0
27/09:30pm 7.4 6.5 5.9 90 0.7 CALM 0 4 0 2 - - 0.0
27/09:00pm 7.8 5.8 6.1 89 0.8 W 6 9 3 5 - - 0.0
27/08:30pm 7.9 4.9 6.2 89 0.8 W 11 13 6 7 - - 0.0
27/08:00pm 7.7 4.3 6.0 89 0.8 WSW 13 17 7 9 - - 0.0
27/07:30pm 8.4 5.1 6.5 88 0.9 WSW 13 17 7 9 - - 0.0
27/07:00pm 8.2 4.9 6.3 88 0.9 W 13 15 7 8 - - 0.0
27/06:30pm 8.2 6.0 6.2 87 1.0 W 7 9 4 5 - - 0.0
27/06:00pm 8.8 6.6 6.2 84 1.3 W 7 11 4 6 - - 0.0
27/05:30pm 9.4 6.5 6.7 83 1.3 WSW 11 15 6 8 - - 0.0
27/05:00pm 9.5 7.0 6.4 81 1.5 WSW 9 13 5 7 - - 0.0
27/04:30pm 10.1 7.6 6.4 78 1.8 WSW 9 15 5 8 - - 0.0
27/04:00pm 10.6 7.3 6.2 74 2.2 W 13 17 7 9 - - 0.0
27/03:30pm 11.1 7.0 6.3 72 2.4 WSW 17 22 9 12 - - 0.0
27/03:00pm 11.3 7.8 7.0 75 2.2 W 15 24 8 13 - - 0.0
27/02:30pm 11.5 8.2 6.6 72 2.5 W 13 20 7 11 - - 0.0
27/02:00pm 11.9 8.9 6.2 68 2.9 WSW 11 17 6 9 - - 0.0
27/01:30pm 13.0 10.1 6.6 65 3.3 WSW 11 19 6 10 - - 0.0
27/01:00pm 12.8 9.9 6.6 66 3.2 W 11 17 6 9 - - 0.0
27/12:30pm 11.4 8.7 5.5 67 2.9 WNW 9 13 5 7 - - 0.0
27/12:00pm 10.9 7.9 3.9 62 3.3 W 9 13 5 7 - - 0.0
27/11:30am 10.2 7.2 3.9 65 3.0 W 9 11 5 6 - - 0.0
27/11:00am 10.0 8.5 2.8 61 3.3 CALM 0 0 0 0 - - 0.0
27/10:30am 9.0 5.6 1.9 61 3.2 W 9 13 5 7 - - 0.0
27/10:00am 8.7 5.5 3.3 69 2.5 WSW 9 13 5 7 - - 0.0
27/09:30am 7.7 4.5 3.0 72 2.1 W 9 13 5 7 - - 0.0
27/09:00am 7.1 3.9 3.2 76 1.8 WSW 9 13 5 7 - - 0.0
27/08:30am 6.9 3.0 3.2 77 1.7 WSW 13 15 7 8 - - 0.0
27/08:00am 6.1 2.1 2.6 78 1.5 W 13 17 7 9 - - 0.0
27/07:30am 5.7 1.2 2.2 78 1.5 W 15 24 8 13 - - 0.0
27/07:00am 6.0 1.1 1.9 75 1.8 W 17 22 9 12 - - 0.0
27/06:30am 6.0 1.2 2.6 79 1.5 W 17 20 9 11 - - 0.0
27/06:00am 6.1 1.4 3.3 82 1.3 W 17 22 9 12 - - 0.0
27/05:30am 6.5 2.2 3.1 79 1.5 W 15 20 8 11 - - 0.0
27/05:00am 6.4 3.1 2.5 76 1.7 W 9 13 5 7 - - 0.0
27/04:30am 6.3 2.6 2.4 76 1.7 W 11 13 6 7 - - 0.0
27/04:00am 6.0 2.3 2.3 77 1.6 W 11 13 6 7 - - 0.0
27/03:30am 6.0 2.7 2.5 78 1.5 W 9 13 5 7 - - 0.0
27/03:00am 6.2 2.6 3.0 80 1.4 W 11 15 6 8 - - 0.0
27/02:30am 6.7 3.0 2.4 74 1.9 WNW 11 13 6 7 - - 0.0
27/02:00am 6.5 3.0 3.5 81 1.4 W 11 15 6 8 - - 0.0
27/01:30am 6.7 3.1 2.8 76 1.7 WNW 11 17 6 9 - - 0.0
27/01:00am 6.7 4.0 2.4 74 1.9 SW 6 7 3 4 - - 0.0
27/12:30am 6.5 5.0 2.8 77 1.6 CALM 0 0 0 0 - - 0.0
27/12:00am 6.7 3.8 2.8 76 1.7 W 7 9 4 5 - - 0.0
 
Date/Time
EST
Temp
°C
App
Temp
°C
Dew
Point
Rel
Hum
%
Delta-T
°C
Wind Press
QNH
hPa
Press
MSL
hPa
Rain
since 9 am
mm
Dir
 
Spd
km/h
Gust
km/h
Spd
kts
Gust
kts
26/11:30pm 8.7 5.6 1.1 59 3.3 NNW 7 9 4 5 - - 0.0
26/11:00pm 7.1 5.0 1.8 69 2.3 WNW 2 7 1 4 - - 0.0
26/10:30pm 6.0 3.4 4.2 88 0.8 WSW 7 11 4 6 - - 0.0
26/10:00pm 6.9 3.9 4.0 82 1.3 ENE 9 13 5 7 - - 0.0
26/09:30pm 7.3 4.9 4.1 80 1.5 N 6 9 3 5 - - 0.0
26/09:00pm 7.3 4.8 4.6 83 1.3 WNW 7 11 4 6 - - 0.0
26/08:30pm 7.4 5.5 4.7 83 1.3 N 4 7 2 4 - - 0.0
26/08:00pm 6.6 4.3 4.6 87 0.9 NE 6 9 3 5 - - 0.0
26/07:30pm 6.7 3.7 4.2 84 1.2 NE 9 11 5 6 - - 0.0
26/07:00pm 6.8 5.6 4.5 85 1.1 CALM 0 6 0 3 - - 0.0
26/06:30pm 6.6 3.7 4.6 87 0.9 ENE 9 13 5 7 - - 0.0
26/06:00pm 6.7 3.8 4.9 88 0.8 ENE 9 11 5 6 - - 0.0
26/05:30pm 7.0 4.5 4.8 86 1.0 NE 7 11 4 6 - - 0.0
26/05:00pm 7.4 4.9 4.7 83 1.3 ENE 7 11 4 6 - - 0.0
26/04:30pm 8.2 5.7 4.8 79 1.6 ENE 7 9 4 5 - - 0.0
26/04:00pm 9.3 6.8 4.9 74 2.1 ENE 7 11 4 6 - - 0.0
26/03:30pm 9.8 6.9 4.6 70 2.5 NE 9 13 5 7 - - 0.0
26/03:00pm 10.9 8.3 4.4 64 3.1 NE 7 9 4 5 - - 0.0
26/02:30pm 11.1 8.6 3.9 61 3.4 ENE 6 9 3 5 - - 0.0
26/02:00pm 11.9 9.8 3.9 58 3.8 ENE 4 9 2 5 - - 0.0
26/01:30pm 11.5 9.6 0.6 47 4.8 CALM 0 2 0 1 - - 0.0
26/01:00pm 10.4 7.4 1.0 52 4.2 W 6 7 3 4 - - 0.0
26/12:30pm 11.5 8.4 0.0 45 5.0 W 6 7 3 4 - - 0.0
26/12:00pm 10.7 7.0 -3.0 38 5.5 W 7 11 4 6 - - 0.0
26/11:30am 10.5 6.1 -5.5 32 6.1 W 9 11 5 6 - - 0.0
26/11:00am 9.9 6.2 -2.7 41 5.1 WNW 7 11 4 6 - - 0.0
26/10:30am 9.6 7.5 -1.1 47 4.5 CALM 0 6 0 3 - - 0.0
26/10:00am 9.5 7.7 0.9 55 3.8 CALM 0 0 0 0 - - 0.0
26/09:30am 8.9 6.7 -1.8 47 4.4 CALM 0 0 0 0 - - 0.0
26/09:00am 7.8 5.2 -4.6 41 4.7 CALM 0 0 0 0 - - 0.0
26/08:30am 7.0 4.5 -4.1 45 4.2 CALM 0 0 0 0 - - 0.0
26/08:00am 5.9 3.4 -4.3 48 3.8 CALM 0 0 0 0 - - 0.0

Other Formats:

Comma delimited format used in spreadsheet applications
http://www.bom.gov.au/fwo/IDN60801/IDN60801.94743.axf

JavaScript Object Notation format (JSON) in row-major order
http://www.bom.gov.au/fwo/IDN60801/IDN60801.94743.json